Grafton, Virginia
Current Conditions -  °F | °C
As of 2:54 PM on Thursday 30 Oct 2014 (Local Time) from KPHF Reporting Station
Scattered Clouds Scattered Clouds  
Wind Chill: 18°   Ceiling: Unl
Heat Index: 18°   Visibility: 10mi
Dew Point:   Wind: 9mph
Humidity: 50%   Direction: 80°E
Pressure: 30"   Gusts: NA
Location:  37.1781°N, 76.4669°W
Report Text: KPHF 301854Z 08008KT 10SM SCT043 18/08 A3000 RMK AO2 RAB15E44 SLP156 P0000 T01830078
Loading
Personal Weather Stations






























Interactive Weather Map
Tropical Storm Tracking
New forecast layout! Learn more

10-Day Weather Forecast

Advertisements
Track Severe Weather on mobile